createdAt,value
2016-04-28T00:00:32.700Z,37.2
2016-04-28T00:01:32.733Z,36.91
2016-04-28T00:02:32.751Z,37.01
2016-04-28T00:03:32.770Z,37.01
2016-04-28T00:04:32.789Z,36.91
2016-04-28T00:05:32.807Z,37.3
2016-04-28T00:06:32.840Z,37.4
2016-04-28T00:07:32.860Z,37.01
2016-04-28T00:08:32.877Z,36.82
2016-04-28T00:09:32.895Z,37.3
2016-04-28T00:10:35.648Z,37.01
2016-04-28T00:11:34.635Z,37.11
2016-04-28T00:12:32.982Z,37.2
2016-04-28T00:13:32.985Z,36.91
2016-04-28T00:14:33.003Z,37.11
2016-04-28T00:15:33.020Z,36.82
2016-04-28T00:16:33.055Z,37.11
2016-04-28T00:17:33.073Z,37.2
2016-04-28T00:18:33.107Z,37.11
2016-04-28T00:19:33.109Z,37.11
2016-04-28T00:20:33.144Z,37.4
2016-04-28T00:21:33.162Z,37.2
2016-04-28T00:22:33.196Z,37.01
2016-04-28T00:23:33.198Z,37.11
2016-04-28T00:24:33.233Z,36.82
2016-04-28T00:25:33.251Z,37.01
2016-04-28T00:26:33.286Z,37.2
2016-04-28T00:27:33.288Z,37.2
2016-04-28T00:28:33.321Z,36.91
2016-04-28T00:29:33.340Z,36.91
2016-04-28T00:30:33.358Z,36.91
2016-04-28T00:31:33.377Z,37.4
2016-04-28T00:32:33.394Z,37.4
2016-04-28T00:33:33.413Z,37.59
2016-04-28T00:34:33.447Z,37.49
2016-04-28T00:35:33.480Z,37.3
2016-04-28T00:36:33.483Z,37.49
2016-04-28T00:37:33.502Z,37.49
2016-04-28T00:38:33.536Z,37.4
2016-04-28T00:39:33.538Z,37.01
2016-04-28T00:40:33.588Z,37.01
2016-04-28T00:41:33.590Z,37.11
2016-04-28T00:42:33.625Z,37.68
2016-04-28T00:43:33.643Z,37.49
2016-04-28T00:44:33.662Z,37.4
2016-04-28T00:45:33.679Z,37.11
2016-04-28T00:46:33.698Z,37.49
2016-04-28T00:47:33.732Z,37.49
2016-04-28T00:48:33.750Z,37.49
2016-04-28T00:49:33.768Z,37.4
2016-04-28T00:50:33.787Z,37.4
2016-04-28T00:51:33.806Z,37.68
2016-04-28T00:52:33.823Z,37.49
2016-04-28T00:53:33.858Z,37.59
2016-04-28T00:54:33.876Z,37.49
2016-04-28T00:55:33.894Z,37.4
2016-04-28T00:56:34.334Z,37.4
2016-04-28T00:57:33.931Z,37.59
2016-04-28T00:58:33.964Z,37.59
2016-04-28T00:59:33.983Z,37.3
2016-04-28T01:00:34.002Z,37.4
2016-04-28T01:01:34.035Z,37.3
2016-04-28T01:02:34.053Z,37.59
2016-04-28T01:03:34.072Z,37.3
2016-04-28T01:04:34.091Z,37.4
2016-04-28T01:05:34.124Z,37.3
2016-04-28T01:06:34.143Z,37.11
2016-04-28T01:07:34.160Z,37.4
2016-04-28T01:08:34.179Z,37.68
2016-04-28T01:09:34.197Z,37.49
2016-04-28T01:10:34.199Z,37.4
2016-04-28T01:11:34.124Z,37.49
2016-04-28T01:12:34.252Z,37.78
2016-04-28T01:13:34.287Z,37.4
2016-04-28T01:14:34.304Z,37.49
2016-04-28T01:15:34.338Z,37.49
2016-04-28T01:16:34.341Z,37.4
2016-04-28T01:17:34.376Z,37.49
2016-04-28T01:18:34.393Z,37.49
2016-04-28T01:19:34.428Z,37.4
2016-04-28T01:20:34.430Z,37.59
2016-04-28T01:21:34.464Z,37.49
2016-04-28T01:22:34.482Z,37.68
2016-04-28T01:23:34.500Z,37.3
2016-04-28T01:24:34.519Z,37.59
2016-04-28T01:25:34.537Z,37.59
2016-04-28T01:26:35.025Z,37.3
2016-04-28T01:27:34.574Z,37.4
2016-04-28T01:28:34.608Z,37.95
2016-04-28T01:29:34.626Z,37.49
2016-04-28T01:30:34.645Z,37.4
2016-04-28T01:31:34.663Z,37.49
2016-04-28T01:32:34.680Z,37.49
2016-04-28T01:33:34.715Z,37.4
2016-04-28T01:34:34.749Z,37.49
2016-04-28T01:35:34.767Z,37.68
2016-04-28T01:36:34.785Z,37.4
2016-04-28T01:37:34.805Z,37.68
2016-04-28T01:38:34.822Z,37.59
2016-04-28T01:39:34.841Z,37.76
2016-04-28T01:40:34.859Z,37.68
2016-04-28T01:41:34.893Z,37.78
2016-04-28T01:42:34.911Z,37.59
2016-04-28T01:43:34.930Z,37.49
2016-04-28T01:44:34.948Z,37.4
2016-04-28T01:45:34.981Z,37.4
2016-04-28T01:46:35.001Z,37.47
2016-04-28T01:47:35.018Z,37.68
2016-04-28T01:48:35.037Z,37.4
2016-04-28T01:49:35.070Z,37.97
2016-04-28T01:50:35.074Z,37.59
2016-04-28T01:51:35.107Z,37.68
2016-04-28T01:52:35.109Z,37.87
2016-04-28T01:53:35.145Z,37.87
2016-04-28T01:54:35.162Z,37.66
2016-04-28T01:55:35.196Z,37.76
2016-04-28T01:56:35.214Z,37.4
2016-04-28T01:57:35.233Z,37.57
2016-04-28T01:58:35.250Z,37.57
2016-04-28T01:59:35.270Z,37.57
2016-04-28T02:00:35.288Z,37.47
2016-04-28T02:01:35.321Z,37.85
2016-04-28T02:02:35.340Z,37.66
2016-04-28T02:03:35.358Z,37.47
2016-04-28T02:04:35.377Z,37.66
2016-04-28T02:05:35.394Z,37.66
2016-04-28T02:06:35.429Z,37.76
2016-04-28T02:07:35.447Z,37.85
2016-04-28T02:08:35.481Z,38.24
2016-04-28T02:09:35.483Z,37.85
2016-04-28T02:10:35.518Z,38.05
2016-04-28T02:11:35.364Z,37.66
2016-04-28T02:12:35.570Z,37.76
2016-04-28T02:13:35.573Z,37.85
2016-04-28T02:14:35.606Z,37.76
2016-04-28T02:15:35.625Z,37.95
2016-04-28T02:16:35.643Z,37.85
2016-04-28T02:17:35.662Z,37.95
2016-04-28T02:18:35.680Z,37.95
2016-04-28T02:19:35.714Z,38.05
2016-04-28T02:20:35.717Z,37.66
2016-04-28T02:21:35.734Z,37.95
2016-04-28T02:22:35.618Z,37.85
2016-04-28T02:23:35.777Z,37.76
2016-04-28T02:24:35.812Z,37.95
2016-04-28T02:25:35.829Z,37.85
2016-04-28T02:26:37.863Z,38.34
2016-04-28T02:27:35.865Z,38.14
2016-04-28T02:28:35.901Z,37.85
2016-04-28T02:29:35.918Z,37.76
2016-04-28T02:30:35.937Z,38.34
2016-04-28T02:31:35.955Z,37.85
2016-04-28T02:32:35.989Z,38.24
2016-04-28T02:33:36.007Z,38.34
2016-04-28T02:34:36.025Z,38.14
2016-04-28T02:35:36.045Z,38.72
2016-04-28T02:36:36.062Z,38.81
2016-04-28T02:37:36.081Z,38.24
2016-04-28T02:38:36.099Z,38.24
2016-04-28T02:39:36.132Z,37.85
2016-04-28T02:40:36.136Z,38.14
2016-04-28T02:41:36.436Z,37.76
2016-04-28T02:42:36.188Z,38.24
2016-04-28T02:43:36.205Z,38.62
2016-04-28T02:44:36.225Z,38.24
2016-04-28T02:45:36.258Z,38.34
2016-04-28T02:46:36.277Z,37.95
2016-04-28T02:47:36.294Z,38.14
2016-04-28T02:48:36.330Z,37.85
2016-04-28T02:49:36.347Z,38.14
2016-04-28T02:50:36.365Z,37.95
2016-04-28T02:51:36.384Z,38.24
2016-04-28T02:52:36.401Z,38.72
2016-04-28T02:53:36.421Z,38.53
2016-04-28T02:54:36.438Z,38.14
2016-04-28T02:55:36.473Z,38.62
2016-04-28T02:56:36.491Z,38.14
2016-04-28T02:57:36.509Z,38.34
2016-04-28T02:58:36.528Z,37.85
2016-04-28T02:59:36.545Z,38.24
2016-04-28T03:00:36.580Z,38.05
2016-04-28T03:01:36.582Z,37.57
2016-04-28T03:02:36.617Z,37.57
2016-04-28T03:03:36.634Z,37.95
2016-04-28T03:04:36.653Z,37.85
2016-04-28T03:05:36.703Z,37.85
2016-04-28T03:06:36.689Z,37.76
2016-04-28T03:07:36.723Z,37.66
2016-04-28T03:08:36.742Z,37.85
2016-04-28T03:09:36.761Z,37.85
2016-04-28T03:10:36.794Z,37.47
2016-04-28T03:11:36.797Z,38.05
2016-04-28T03:12:36.847Z,37.85
2016-04-28T03:13:36.849Z,37.85
2016-04-28T03:14:36.867Z,37.95
2016-04-28T03:15:36.886Z,38.24
2016-04-28T03:16:36.919Z,37.85
2016-04-28T03:17:36.922Z,38.14
2016-04-28T03:18:36.957Z,38.24
2016-04-28T03:19:36.974Z,38.24
2016-04-28T03:20:36.993Z,38.34
2016-04-28T03:21:37.027Z,38.53
2016-04-28T03:22:37.046Z,38.14
2016-04-28T03:23:37.048Z,38.51
2016-04-28T03:24:37.082Z,38.62
2016-04-28T03:25:37.101Z,38.62
2016-04-28T03:26:38.681Z,38.7
2016-04-28T03:27:37.152Z,38.34
2016-04-28T03:28:37.170Z,38.24
2016-04-28T03:29:37.174Z,38.32
2016-04-28T03:30:37.192Z,37.93
2016-04-28T03:31:37.226Z,38.32
2016-04-28T03:32:37.244Z,38.22
2016-04-28T03:33:37.262Z,38.24
2016-04-28T03:34:37.296Z,38.22
2016-04-28T03:35:37.314Z,38.6
2016-04-28T03:36:37.333Z,38.6
2016-04-28T03:37:37.351Z,38.51
2016-04-28T03:38:37.386Z,38.22
2016-04-28T03:39:37.388Z,37.85
2016-04-28T03:40:37.421Z,38.12
2016-04-28T03:41:37.519Z,38.03
2016-04-28T03:42:37.458Z,38.41
2016-04-28T03:43:37.477Z,38.51
2016-04-28T03:44:37.494Z,38.12
2016-04-28T03:45:37.530Z,38.05
2016-04-28T03:46:37.532Z,38.6
2016-04-28T03:47:37.565Z,38.6
2016-04-28T03:48:37.584Z,38.6
2016-04-28T03:49:37.602Z,38.7
2016-04-28T03:50:37.621Z,38.12
2016-04-28T03:51:37.638Z,38.14
2016-04-28T03:52:37.657Z,38.51
2016-04-28T03:53:37.676Z,38.6
2016-04-28T03:54:37.709Z,38.7
2016-04-28T03:55:37.727Z,38.98
2016-04-28T03:56:37.746Z,39.08
2016-04-28T03:57:37.765Z,38.6
2016-04-28T03:58:37.798Z,38.41
2016-04-28T03:59:37.817Z,38.6
2016-04-28T04:00:37.835Z,38.7
2016-04-28T04:01:37.854Z,38.51
2016-04-28T04:02:37.887Z,38.51
2016-04-28T04:03:37.890Z,38.6
2016-04-28T04:04:37.924Z,38.7
2016-04-28T04:05:37.942Z,38.32
2016-04-28T04:06:37.945Z,38.6
2016-04-28T04:07:37.978Z,38.41
2016-04-28T04:08:37.997Z,38.51
2016-04-28T04:09:38.015Z,38.51
2016-04-28T04:10:38.034Z,38.51
2016-04-28T04:11:37.911Z,38.22
2016-04-28T04:12:38.086Z,38.32
2016-04-28T04:13:38.105Z,38.51
2016-04-28T04:14:38.107Z,38.7
2016-04-28T04:15:38.141Z,38.6
2016-04-28T04:16:38.159Z,38.6
2016-04-28T04:17:38.178Z,38.6
2016-04-28T04:18:38.211Z,38.89
2016-04-28T04:19:38.229Z,38.51
2016-04-28T04:20:38.249Z,38.32
2016-04-28T04:21:38.266Z,38.51
2016-04-28T04:22:38.300Z,38.7
2016-04-28T04:23:38.302Z,38.7
2016-04-28T04:24:38.353Z,38.6
2016-04-28T04:25:38.355Z,38.6
2016-04-28T04:26:38.390Z,38.7
2016-04-28T04:27:38.392Z,38.7
2016-04-28T04:28:38.426Z,38.7
2016-04-28T04:29:38.429Z,38.7
2016-04-28T04:30:38.446Z,38.6
2016-04-28T04:31:38.465Z,38.7
2016-04-28T04:32:38.499Z,38.22
2016-04-28T04:33:38.517Z,38.51
2016-04-28T04:34:38.551Z,38.22
2016-04-28T04:35:38.553Z,38.51
2016-04-28T04:36:38.573Z,38.51
2016-04-28T04:37:38.622Z,38.32
2016-04-28T04:38:38.625Z,38.6
2016-04-28T04:39:38.643Z,38.32
2016-04-28T04:40:38.661Z,38.7
2016-04-28T04:41:38.523Z,38.7
2016-04-28T04:42:38.697Z,38.32
2016-04-28T04:43:38.731Z,37.93
2016-04-28T04:44:38.750Z,38.7
2016-04-28T04:45:38.753Z,38.7
2016-04-28T04:46:38.786Z,38.41
2016-04-28T04:47:38.805Z,38.22
2016-04-28T04:48:38.824Z,37.74
2016-04-28T04:49:38.841Z,37.74
2016-04-28T04:50:38.860Z,37.93
2016-04-28T04:51:38.894Z,37.45
2016-04-28T04:52:38.897Z,37.74
2016-04-28T04:53:38.930Z,37.45
2016-04-28T04:54:38.949Z,37.47
2016-04-28T04:55:38.968Z,37.57
2016-04-28T04:56:39.391Z,37.57
2016-04-28T04:57:39.019Z,37.38
2016-04-28T04:58:39.037Z,37.18
2016-04-28T04:59:39.057Z,37.18
2016-04-28T05:00:39.090Z,37.09
2016-04-28T05:01:39.093Z,35.84
2016-04-28T05:02:39.111Z,34.71
2016-04-28T05:03:39.145Z,33.69
2016-04-28T05:04:39.163Z,32.92
2016-04-28T05:05:39.197Z,31.98
2016-04-28T05:06:39.215Z,31.41
2016-04-28T05:07:39.218Z,30.46
2016-04-28T05:08:39.253Z,30.18
2016-04-28T05:09:39.255Z,29.61
2016-04-28T05:10:39.288Z,29.33
2016-04-28T05:11:39.838Z,29.33
2016-04-28T05:12:39.326Z,29.33
2016-04-28T05:13:39.344Z,28.77
2016-04-28T05:14:39.377Z,28.29
2016-04-28T05:15:39.397Z,28
2016-04-28T05:16:39.414Z,28.09
2016-04-28T05:17:39.433Z,27.82
2016-04-28T05:18:39.466Z,27.53
2016-04-28T05:19:39.486Z,27.34
2016-04-28T05:20:39.502Z,27.53
2016-04-28T05:21:39.522Z,26.95
2016-04-28T05:22:39.555Z,26.87
2016-04-28T05:23:39.557Z,26.58
2016-04-28T05:24:39.591Z,26.58
2016-04-28T05:25:39.611Z,26.39
2016-04-28T05:26:39.644Z,26.4
2016-04-28T05:27:39.646Z,26.11
2016-04-28T05:28:39.682Z,25.63
2016-04-28T05:29:39.715Z,25.44
2016-04-28T05:30:39.733Z,24.97
2016-04-28T05:31:39.735Z,24.49
2016-04-28T05:32:39.771Z,23.82
2016-04-28T05:33:39.787Z,23.83
2016-04-28T05:34:39.807Z,23.45
2016-04-28T05:35:39.840Z,22.78
2016-04-28T05:36:39.858Z,22.69
2016-04-28T05:37:39.876Z,22.41
2016-04-28T05:38:39.896Z,21.92
2016-04-28T05:39:39.929Z,21.26
2016-04-28T05:40:39.947Z,21.07
2016-04-28T05:41:40.434Z,20.5
2016-04-28T05:42:40.734Z,20.03
2016-04-28T05:43:40.018Z,19.74
2016-04-28T05:44:40.053Z,19.17
2016-04-28T05:45:40.070Z,19.07
2016-04-28T05:46:40.104Z,18.59
2016-04-28T05:47:40.108Z,18.7
2016-04-28T05:48:40.125Z,17.93
2016-04-28T05:49:40.159Z,17.55
2016-04-28T05:50:40.177Z,17.16
2016-04-28T05:51:40.197Z,16.97
2016-04-28T05:52:40.230Z,16.3
2016-04-28T05:53:40.264Z,16.11
2016-04-28T05:54:40.282Z,15.82
2016-04-28T05:55:40.316Z,16.02
2016-04-28T05:56:41.225Z,15.64
2016-04-28T05:57:40.337Z,15.25
2016-04-28T05:58:40.355Z,15.06
2016-04-28T05:59:40.390Z,15.07
2016-04-28T06:00:40.413Z,15.16
2016-04-28T06:01:40.473Z,15.45
2016-04-28T06:02:40.547Z,14.87
2016-04-28T06:03:40.621Z,14.68
2016-04-28T06:04:40.681Z,13.91
2016-04-28T06:05:40.751Z,13.24
2016-04-28T06:06:40.784Z,12.56
2016-04-28T06:07:40.817Z,12.76
2016-04-28T06:08:40.851Z,12.57
2016-04-28T06:09:40.898Z,12.28
2016-04-28T06:10:40.931Z,12.67
2016-04-28T06:11:41.000Z,12.38
2016-04-28T06:12:40.993Z,12.57
2016-04-28T06:13:41.031Z,13.64
2016-04-28T06:14:41.056Z,13.92
2016-04-28T06:15:41.093Z,12.66
2016-04-28T06:16:41.098Z,12.38
2016-04-28T06:17:41.133Z,12.48
2016-04-28T06:18:41.154Z,12.48
2016-04-28T06:19:41.206Z,12.29
2016-04-28T06:20:41.225Z,12.29
2016-04-28T06:21:41.245Z,12.1
2016-04-28T06:22:41.264Z,12.29
2016-04-28T06:23:41.298Z,12.87
2016-04-28T06:24:41.333Z,12.38
2016-04-28T06:25:41.353Z,13.25
2016-04-28T06:26:41.230Z,13.15
2016-04-28T06:27:41.281Z,13.06
2016-04-28T06:28:41.423Z,12.76
2016-04-28T06:29:41.458Z,12.48
2016-04-28T06:30:41.493Z,12.38
2016-04-28T06:31:41.510Z,12.77
2016-04-28T06:32:41.561Z,12.66
2016-04-28T06:33:41.563Z,12.76
2016-04-28T06:34:41.597Z,12.57
2016-04-28T06:35:41.632Z,13.15
2016-04-28T06:36:41.649Z,12.96
2016-04-28T06:37:41.683Z,14.03
2016-04-28T06:38:41.686Z,14.31
2016-04-28T06:39:41.720Z,13.92
2016-04-28T06:40:41.738Z,13.92
2016-04-28T06:41:41.615Z,14.31
2016-04-28T06:42:41.806Z,15.56
2016-04-28T06:43:41.825Z,15.84
2016-04-28T06:44:41.858Z,16.22
2016-04-28T06:45:41.892Z,16.02
2016-04-28T06:46:41.911Z,15.84
2016-04-28T06:47:41.929Z,16.61
2016-04-28T06:48:41.963Z,17.08
2016-04-28T06:49:41.997Z,17.18
2016-04-28T06:50:42.014Z,17.28
2016-04-28T06:51:42.050Z,16.41
2016-04-28T06:52:42.067Z,16.12
2016-04-28T06:53:42.102Z,15.94
2016-04-28T06:54:42.135Z,15.45
2016-04-28T06:55:42.153Z,15.75
2016-04-28T06:56:42.031Z,15.55
2016-04-28T06:57:42.549Z,15.55
2016-04-28T06:58:42.240Z,15.75
2016-04-28T06:59:42.257Z,16.13
2016-04-28T07:00:42.307Z,16.13
2016-04-28T07:01:42.311Z,16.22
2016-04-28T07:02:42.344Z,17.19
2016-04-28T07:03:42.378Z,16.6
2016-04-28T07:04:42.397Z,16.41
2016-04-28T07:05:42.430Z,16.22
2016-04-28T07:06:42.448Z,16.61
2016-04-28T07:07:42.467Z,17.38
2016-04-28T07:08:42.501Z,17.08
2016-04-28T07:09:42.534Z,17.08
2016-04-28T07:10:42.569Z,16.69
2016-04-28T07:11:46.040Z,16.69
2016-04-28T07:12:42.621Z,16.61
2016-04-28T07:13:42.640Z,16.51
2016-04-28T07:14:42.658Z,16.8
2016-04-28T07:15:42.692Z,16.99
2016-04-28T07:16:42.709Z,18.24
2016-04-28T07:17:42.759Z,18.71
2016-04-28T07:18:42.778Z,17.84
2016-04-28T07:19:42.811Z,16.88
2016-04-28T07:20:42.845Z,17.18
2016-04-28T07:21:42.864Z,18.15
2016-04-28T07:22:42.743Z,18.61
2016-04-28T07:23:42.918Z,19.28
2016-04-28T07:24:42.982Z,18.7
2016-04-28T07:25:42.970Z,18.32
2016-04-28T07:26:43.301Z,18.04
2016-04-28T07:27:43.037Z,17.74
2016-04-28T07:28:43.055Z,17.46
2016-04-28T07:29:43.089Z,16.98
2016-04-28T07:30:43.108Z,17.76
2016-04-28T07:31:43.158Z,18.04
2016-04-28T07:32:43.176Z,17.94
2016-04-28T07:33:43.211Z,17.84
2016-04-28T07:34:43.244Z,18.05
2016-04-28T07:35:43.262Z,17.94
2016-04-28T07:36:43.327Z,17.74
2016-04-28T07:37:43.299Z,17.76
2016-04-28T07:38:43.332Z,17.76
2016-04-28T07:39:43.366Z,17.84
2016-04-28T07:40:43.385Z,18.13
2016-04-28T07:41:44.138Z,18.13
2016-04-28T07:42:44.187Z,18.13
2016-04-28T07:43:43.487Z,17.94
2016-04-28T07:44:43.521Z,18.62
2016-04-28T07:45:43.539Z,18.41
2016-04-28T07:46:43.574Z,18.41
2016-04-28T07:47:43.576Z,18.71
2016-04-28T07:48:43.625Z,18.71
2016-04-28T07:49:43.643Z,19.18
2016-04-28T07:50:43.662Z,19.38
2016-04-28T07:51:43.711Z,19.47
2016-04-28T07:52:43.714Z,19.66
2016-04-28T07:53:43.748Z,19.85
2016-04-28T07:54:43.767Z,19.95
2016-04-28T07:55:43.691Z,19.85
2016-04-28T07:56:43.679Z,19.75
2016-04-28T07:57:43.884Z,20.14
2016-04-28T07:58:43.887Z,20.03
2016-04-28T07:59:43.920Z,20.14
2016-04-28T08:00:43.954Z,20.13
2016-04-28T08:01:43.973Z,20.32
2016-04-28T08:02:44.006Z,20.32
2016-04-28T08:03:44.041Z,20.23
2016-04-28T08:04:44.058Z,20.32
2016-04-28T08:05:44.092Z,20.13
2016-04-28T08:06:44.142Z,20.43
2016-04-28T08:07:44.188Z,20.24
2016-04-28T08:08:44.143Z,20.23
2016-04-28T08:09:44.178Z,19.95
2016-04-28T08:10:44.212Z,20.03
2016-04-28T08:11:44.261Z,19.85
2016-04-28T08:12:45.436Z,19.95
2016-04-28T08:13:46.828Z,20.24
2016-04-28T08:14:44.348Z,20.04
2016-04-28T08:15:44.365Z,20.04
2016-04-28T08:16:44.384Z,19.85
2016-04-28T08:17:44.434Z,20.04
2016-04-28T08:18:44.437Z,20.04
2016-04-28T08:19:44.470Z,20.04
2016-04-28T08:20:44.503Z,20.04
2016-04-28T08:21:44.522Z,20.24
2016-04-28T08:22:44.541Z,20.14
2016-04-28T08:23:44.575Z,20.24
2016-04-28T08:24:44.593Z,20.14
2016-04-28T08:25:44.642Z,20.14
2016-04-28T08:26:44.536Z,20.34
2016-04-28T08:27:45.898Z,20.32
2016-04-28T08:28:44.792Z,20.14
2016-04-28T08:29:44.747Z,20.24
2016-04-28T08:30:44.766Z,20.34
2016-04-28T08:31:44.799Z,20.24
2016-04-28T08:32:44.833Z,20.42
2016-04-28T08:33:44.868Z,20.23
2016-04-28T08:34:44.885Z,20.42
2016-04-28T08:35:44.919Z,20.43
2016-04-28T08:36:44.938Z,20.32
2016-04-28T08:37:44.971Z,20.62
2016-04-28T08:38:45.006Z,20.52
2016-04-28T08:39:45.023Z,20.52
2016-04-28T08:40:45.058Z,20.81
2016-04-28T08:41:45.093Z,20.71
2016-04-28T08:42:45.110Z,20.71
2016-04-28T08:43:45.145Z,20.81
2016-04-28T08:44:45.178Z,20.9
2016-04-28T08:45:45.196Z,20.81
2016-04-28T08:46:45.215Z,20.81
2016-04-28T08:47:45.248Z,20.71
2016-04-28T08:48:45.298Z,20.71
2016-04-28T08:49:45.301Z,20.81
2016-04-28T08:50:45.335Z,20.62
2016-04-28T08:51:45.369Z,20.81
2016-04-28T08:52:45.403Z,20.81
2016-04-28T08:53:45.421Z,20.81
2016-04-28T08:54:45.455Z,20.81
2016-04-28T08:55:45.458Z,20.62
2016-04-28T08:56:46.976Z,20.71
2016-04-28T08:57:45.525Z,20.71
2016-04-28T08:58:45.544Z,20.81
2016-04-28T08:59:45.577Z,20.7
2016-04-28T09:00:45.596Z,22.25
2016-04-28T09:01:45.646Z,21.85
2016-04-28T09:02:45.664Z,21.77
2016-04-28T09:03:45.699Z,21.38
2016-04-28T09:04:45.716Z,21.56
2016-04-28T09:05:47.672Z,21.57
2016-04-28T09:06:45.785Z,21.56
2016-04-28T09:07:45.802Z,21.66
2016-04-28T09:08:45.837Z,21.37
2016-04-28T09:09:45.839Z,21.66
2016-04-28T09:10:45.888Z,21.56
2016-04-28T09:11:45.798Z,21.56
2016-04-28T09:12:48.348Z,21.56
2016-04-28T09:13:45.960Z,21.85
2016-04-28T09:14:45.993Z,21.66
2016-04-28T09:15:46.027Z,21.85
2016-04-28T09:16:46.045Z,21.75
2016-04-28T09:17:46.079Z,21.85
2016-04-28T09:18:46.114Z,21.65
2016-04-28T09:19:46.131Z,21.75
2016-04-28T09:20:46.150Z,21.84
2016-04-28T09:21:46.184Z,21.65
2016-04-28T09:22:46.202Z,21.85
2016-04-28T09:23:46.236Z,21.75
2016-04-28T09:24:46.255Z,21.75
2016-04-28T09:25:46.289Z,21.56
2016-04-28T09:26:46.494Z,21.56
2016-04-28T09:27:46.341Z,21.27
2016-04-28T09:28:46.374Z,21.47
2016-04-28T09:29:46.393Z,21.56
2016-04-28T09:30:46.426Z,21.47
2016-04-28T09:31:46.460Z,21.27
2016-04-28T09:32:46.480Z,21.28
2016-04-28T09:33:46.513Z,21.28
2016-04-28T09:34:46.531Z,21.27
2016-04-28T09:35:46.565Z,21.57
2016-04-28T09:36:46.583Z,21.38
2016-04-28T09:37:46.618Z,21.09
2016-04-28T09:38:46.635Z,21.38
2016-04-28T09:39:46.670Z,21.19
2016-04-28T09:40:46.687Z,21.28
2016-04-28T09:41:46.721Z,21.09
2016-04-28T09:42:46.600Z,21.19
2016-04-28T09:43:46.774Z,21.19
2016-04-28T09:44:46.809Z,21.19
2016-04-28T09:45:46.842Z,21.19
2016-04-28T09:46:46.876Z,21.19
2016-04-28T09:47:46.878Z,21.19
2016-04-28T09:48:46.912Z,21.19
2016-04-28T09:49:46.931Z,21.19
2016-04-28T09:50:46.950Z,21.09
2016-04-28T09:51:46.998Z,21.28
2016-04-28T09:52:49.236Z,21.19
2016-04-28T09:53:47.036Z,21.38
2016-04-28T09:54:47.069Z,21.28
2016-04-28T09:55:47.103Z,21.28
2016-04-28T09:56:47.105Z,21.28
2016-04-28T09:57:48.686Z,21.19
2016-04-28T09:58:47.174Z,21.19
2016-04-28T09:59:47.192Z,21.09
2016-04-28T10:00:47.242Z,21.19
2016-04-28T10:01:47.260Z,20.89
2016-04-28T10:02:47.153Z,20.99
2016-04-28T10:03:47.297Z,20.9
2016-04-28T10:04:47.330Z,20.8
2016-04-28T10:05:47.365Z,20.62
2016-04-28T10:06:47.383Z,20.71
2016-04-28T10:07:48.246Z,20.71
2016-04-28T10:08:47.436Z,20.71
2016-04-28T10:09:47.469Z,20.62
2016-04-28T10:10:47.535Z,20.9
2016-04-28T10:11:47.522Z,20.81
2016-04-28T10:12:48.023Z,21
2016-04-28T10:13:47.573Z,20.9
2016-04-28T10:14:47.593Z,20.81
2016-04-28T10:15:47.626Z,20.89
2016-04-28T10:16:47.644Z,20.9
2016-04-28T10:17:48.693Z,20.71
2016-04-28T10:18:47.696Z,20.62
2016-04-28T10:19:47.745Z,20.52
2016-04-28T10:20:47.765Z,20.52
2016-04-28T10:21:47.798Z,20.62
2016-04-28T10:22:50.989Z,20.71
2016-04-28T10:23:47.850Z,20.81
2016-04-28T10:24:47.870Z,20.71
2016-04-28T10:25:47.903Z,20.81
2016-04-28T10:26:47.765Z,20.71
2016-04-28T10:27:48.345Z,20.9
2016-04-28T10:28:47.973Z,20.71
2016-04-28T10:29:48.008Z,20.9
2016-04-28T10:30:48.025Z,20.71
2016-04-28T10:31:48.060Z,20.81
2016-04-28T10:32:48.078Z,20.81
2016-04-28T10:33:48.111Z,20.81
2016-04-28T10:34:48.130Z,20.81
2016-04-28T10:35:48.164Z,20.9
2016-04-28T10:36:48.199Z,20.81
2016-04-28T10:37:48.217Z,20.9
2016-04-28T10:38:48.234Z,20.81
2016-04-28T10:39:48.268Z,20.9
2016-04-28T10:40:48.302Z,21
2016-04-28T10:41:48.321Z,20.9
2016-04-28T10:42:48.495Z,21
2016-04-28T10:43:48.373Z,21.28
2016-04-28T10:44:48.407Z,21.2
2016-04-28T10:45:48.426Z,21.28
2016-04-28T10:46:48.460Z,21.28
2016-04-28T10:47:48.493Z,21.38
2016-04-28T10:48:48.512Z,21.19
2016-04-28T10:49:48.546Z,21.28
2016-04-28T10:50:48.564Z,21.19
2016-04-28T10:51:48.598Z,21.09
2016-04-28T10:52:48.662Z,21.19
2016-04-28T10:53:48.650Z,21.19
2016-04-28T10:54:48.668Z,21.28
2016-04-28T10:55:48.703Z,21.28
2016-04-28T10:56:49.595Z,21.38
2016-04-28T10:57:48.739Z,21.38
2016-04-28T10:58:48.773Z,21.48
2016-04-28T10:59:48.806Z,21.67
2016-04-28T11:00:48.825Z,21.38
2016-04-28T11:01:48.859Z,21.67
2016-04-28T11:02:48.878Z,21.38
2016-04-28T11:03:48.896Z,21.57
2016-04-28T11:04:48.945Z,21.38
2016-04-28T11:05:48.963Z,21.19
2016-04-28T11:06:48.997Z,21.28
2016-04-28T11:07:49.016Z,21.28
2016-04-28T11:08:49.049Z,21.28
2016-04-28T11:09:49.068Z,21.19
2016-04-28T11:10:49.102Z,21.3
2016-04-28T11:11:49.136Z,21.1
2016-04-28T11:12:49.623Z,20.89
2016-04-28T11:13:49.188Z,20.9
2016-04-28T11:14:49.207Z,21.1
2016-04-28T11:15:49.224Z,21
2016-04-28T11:16:49.259Z,21.2
2016-04-28T11:17:49.277Z,21.28
2016-04-28T11:18:49.311Z,21.38
2016-04-28T11:19:49.345Z,21.38
2016-04-28T11:20:49.357Z,21.38
2016-04-28T11:21:49.392Z,21.28
2016-04-28T11:22:49.410Z,21.57
2016-04-28T11:23:49.459Z,21.38
2016-04-28T11:24:49.462Z,21.48
2016-04-28T11:25:49.496Z,21.48
2016-04-28T11:26:49.530Z,21.19
2016-04-28T11:27:49.548Z,21.48
2016-04-28T11:28:49.582Z,21.48
2016-04-28T11:29:49.616Z,21.57
2016-04-28T11:30:49.634Z,21.57
2016-04-28T11:31:49.653Z,21.57
2016-04-28T11:32:49.687Z,21.57
2016-04-28T11:33:49.705Z,21.57
2016-04-28T11:34:49.738Z,21.48
2016-04-28T11:35:49.757Z,21.67
2016-04-28T11:36:49.790Z,21.48
2016-04-28T11:37:49.809Z,21.77
2016-04-28T11:38:49.843Z,21.75
2016-04-28T11:39:49.877Z,22.14
2016-04-28T11:40:49.896Z,22.16
2016-04-28T11:41:49.929Z,22.33
2016-04-28T11:42:50.667Z,22.14
2016-04-28T11:43:49.982Z,22.24
2016-04-28T11:44:50.032Z,22.33
2016-04-28T11:45:50.034Z,22.05
2016-04-28T11:46:50.131Z,22.24
2016-04-28T11:47:50.084Z,22.33
2016-04-28T11:48:50.118Z,22.82
2016-04-28T11:49:50.136Z,22.81
2016-04-28T11:50:50.420Z,22.61
2016-04-28T11:51:50.189Z,22.43
2016-04-28T11:52:50.223Z,22.24
2016-04-28T11:53:50.240Z,22.24
2016-04-28T11:54:50.274Z,22.53
2016-04-28T11:55:50.292Z,22.63
2016-04-28T11:56:50.327Z,22.72
2016-04-28T11:57:53.114Z,22.71
2016-04-28T11:58:50.379Z,22.72
2016-04-28T11:59:50.413Z,22.43
2016-04-28T12:00:50.431Z,22.43
2016-04-28T12:01:50.466Z,22.53
2016-04-28T12:02:50.483Z,22.53
2016-04-28T12:03:50.517Z,22.53
2016-04-28T12:04:50.535Z,22.63
2016-04-28T12:05:50.569Z,22.33
2016-04-28T12:06:50.604Z,22.05
2016-04-28T12:07:50.622Z,21.95
2016-04-28T12:08:50.655Z,21.66
2016-04-28T12:09:50.674Z,21.67
2016-04-28T12:10:50.707Z,21.77
2016-04-28T12:11:50.726Z,21.67
2016-04-28T12:12:52.576Z,21.86
2016-04-28T12:13:50.779Z,21.86
2016-04-28T12:14:50.796Z,21.96
2016-04-28T12:15:50.846Z,22.44
2016-04-28T12:16:50.849Z,22.24
2016-04-28T12:17:50.884Z,22.05
2016-04-28T12:18:50.917Z,22.25
2016-04-28T12:19:50.935Z,22.24
2016-04-28T12:20:50.970Z,21.95
2016-04-28T12:21:50.988Z,21.75
2016-04-28T12:22:51.006Z,21.95
2016-04-28T12:23:51.056Z,21.96
2016-04-28T12:24:51.058Z,21.86
2016-04-28T12:25:51.092Z,21.77
2016-04-28T12:26:51.125Z,21.86
2016-04-28T12:27:51.019Z,21.86
2016-04-28T12:28:51.178Z,21.67
2016-04-28T12:29:51.197Z,21.67
2016-04-28T12:30:51.231Z,21.67
2016-04-28T12:31:51.264Z,21.86
2016-04-28T12:32:51.283Z,21.48
2016-04-28T12:33:51.317Z,21.48
2016-04-28T12:34:51.336Z,21.67
2016-04-28T12:35:51.368Z,21.77
2016-04-28T12:36:51.387Z,21.57
2016-04-28T12:37:51.421Z,21.48
2016-04-28T12:38:51.440Z,21.57
2016-04-28T12:39:51.474Z,21.57
2016-04-28T12:40:51.492Z,21.77
2016-04-28T12:41:51.526Z,21.86
2016-04-28T12:42:51.591Z,21.86
2016-04-28T12:43:51.579Z,21.96
2016-04-28T12:44:51.613Z,21.67
2016-04-28T12:45:51.629Z,21.57
2016-04-28T12:46:51.679Z,21.57
2016-04-28T12:47:51.682Z,21.57
2016-04-28T12:48:51.717Z,21.57
2016-04-28T12:49:51.734Z,21.57
2016-04-28T12:50:51.862Z,21.57
2016-04-28T12:51:51.787Z,21.48
2016-04-28T12:52:51.821Z,21.67
2016-04-28T12:53:51.839Z,21.57
2016-04-28T12:54:51.873Z,21.57
2016-04-28T12:55:51.892Z,21.57
2016-04-28T12:56:51.925Z,21.57